createdAt,value
2022-08-22T00:00:24.057Z,84.90
2022-08-22T00:02:54.491Z,78.70
2022-08-22T00:03:06.413Z,82.10
2022-08-22T00:03:07.725Z,70.90
2022-08-22T00:03:10.107Z,83.40
2022-08-22T00:03:32.933Z,84.70
2022-08-22T00:06:25.375Z,84.80
2022-08-22T00:09:29.701Z,85.00
2022-08-22T00:12:24.868Z,85.20
2022-08-22T00:15:43.149Z,85.10
2022-08-22T00:18:39.686Z,84.90
2022-08-22T00:21:31.155Z,85.10
2022-08-22T00:24:48.517Z,84.90
2022-08-22T00:27:45.715Z,85.10
2022-08-22T00:30:39.938Z,85.10
2022-08-22T00:34:06.690Z,85.20
2022-08-22T00:37:11.446Z,85.40
2022-08-22T00:40:08.842Z,85.60
2022-08-22T00:43:26.197Z,85.30
2022-08-22T00:46:47.598Z,85.20
2022-08-22T00:50:17.603Z,85.20
2022-08-22T00:53:27.411Z,85.20
2022-08-22T00:56:46.000Z,85.30
2022-08-22T01:00:00.519Z,85.70
2022-08-22T01:03:23.890Z,85.90
2022-08-22T01:06:43.819Z,86.10
2022-08-22T01:09:54.897Z,86.00
2022-08-22T01:12:47.682Z,85.80
2022-08-22T01:15:36.482Z,85.60
2022-08-22T01:18:53.542Z,85.60
2022-08-22T01:22:29.458Z,85.80
2022-08-22T01:25:52.599Z,85.80
2022-08-22T01:29:13.444Z,85.80
2022-08-22T01:32:36.522Z,85.90
2022-08-22T01:35:30.118Z,86.30
2022-08-22T01:38:59.664Z,86.80
2022-08-22T01:41:56.385Z,86.50
2022-08-22T01:45:19.268Z,86.20
2022-08-22T01:48:12.974Z,86.40
2022-08-22T01:51:22.015Z,86.80
2022-08-22T01:54:26.115Z,87.10
2022-08-22T01:57:13.319Z,87.10
2022-08-22T02:00:07.751Z,87.00
2022-08-22T02:03:21.788Z,87.10
2022-08-22T02:06:16.966Z,87.20
2022-08-22T02:09:08.165Z,87.30
2022-08-22T02:12:22.011Z,87.10
2022-08-22T02:15:07.428Z,87.10
2022-08-22T02:18:04.987Z,87.60
2022-08-22T02:21:37.110Z,87.50
2022-08-22T02:24:28.428Z,87.50
2022-08-22T02:27:38.470Z,87.20
2022-08-22T02:30:42.359Z,87.20
2022-08-22T02:33:49.207Z,87.20
2022-08-22T02:36:58.233Z,87.40
2022-08-22T02:40:08.769Z,87.50
2022-08-22T02:43:43.570Z,87.80
2022-08-22T02:46:47.106Z,87.90
2022-08-22T02:49:44.036Z,87.30
2022-08-22T02:52:53.845Z,87.80
2022-08-22T02:55:42.090Z,87.90
2022-08-22T02:58:40.538Z,87.70
2022-08-22T03:01:40.867Z,88.40
2022-08-22T03:04:47.245Z,87.80
2022-08-22T03:07:44.250Z,87.60
2022-08-22T03:10:36.522Z,88.10
2022-08-22T03:13:55.921Z,88.20
2022-08-22T03:17:08.098Z,88.30
2022-08-22T03:20:10.633Z,87.70
2022-08-22T03:23:32.825Z,87.80
2022-08-22T03:26:27.773Z,87.70
2022-08-22T03:29:29.336Z,87.70
2022-08-22T03:32:19.190Z,87.30
2022-08-22T03:35:10.468Z,87.60
2022-08-22T03:38:11.323Z,87.60
2022-08-22T03:41:23.921Z,88.00
2022-08-22T03:44:54.057Z,87.90
2022-08-22T03:47:55.038Z,89.00
2022-08-22T03:50:59.486Z,88.70
2022-08-22T03:54:09.467Z,88.20
2022-08-22T03:57:32.405Z,88.40
2022-08-22T04:00:37.362Z,88.20
2022-08-22T04:03:41.531Z,87.90
2022-08-22T04:06:56.442Z,87.40
2022-08-22T04:10:04.040Z,87.50
2022-08-22T04:13:29.045Z,88.30
2022-08-22T04:16:41.900Z,87.90
2022-08-22T04:19:47.840Z,88.60
2022-08-22T04:22:52.463Z,88.30
2022-08-22T04:25:39.014Z,88.80
2022-08-22T04:28:35.439Z,88.80
2022-08-22T04:31:29.536Z,88.70
2022-08-22T04:34:27.031Z,88.40
2022-08-22T04:37:39.295Z,88.00
2022-08-22T04:40:28.730Z,88.40
2022-08-22T04:43:33.999Z,88.40
2022-08-22T04:46:41.682Z,88.70
2022-08-22T04:49:36.823Z,88.80
2022-08-22T04:52:36.024Z,89.40
2022-08-22T04:55:45.868Z,89.20
2022-08-22T04:58:49.416Z,89.60
2022-08-22T05:01:46.547Z,89.80
2022-08-22T05:04:33.853Z,89.60
2022-08-22T05:07:36.041Z,89.40
2022-08-22T05:10:26.317Z,89.70
2022-08-22T05:13:19.503Z,90.10
2022-08-22T05:16:11.376Z,90.10
2022-08-22T05:19:16.039Z,90.20
2022-08-22T05:22:03.282Z,90.20
2022-08-22T05:24:51.994Z,90.50
2022-08-22T05:27:44.625Z,90.40
2022-08-22T05:30:31.326Z,90.80
2022-08-22T05:33:26.877Z,90.70
2022-08-22T05:36:16.979Z,90.80
2022-08-22T05:39:13.404Z,91.10
2022-08-22T05:42:04.205Z,90.90
2022-08-22T05:44:49.672Z,90.80
2022-08-22T05:47:51.334Z,90.90
2022-08-22T05:50:50.968Z,91.00
2022-08-22T05:53:40.991Z,91.00
2022-08-22T05:56:47.378Z,91.00
2022-08-22T05:59:35.398Z,90.90
2022-08-22T06:02:50.956Z,90.90
2022-08-22T06:05:41.050Z,90.70
2022-08-22T06:08:31.637Z,91.10
2022-08-22T06:11:33.727Z,90.90
2022-08-22T06:14:45.129Z,91.20
2022-08-22T06:17:36.589Z,91.20
2022-08-22T06:20:26.970Z,90.90
2022-08-22T06:23:21.565Z,91.40
2022-08-22T06:26:20.722Z,91.50
2022-08-22T06:29:08.505Z,91.40
2022-08-22T06:31:53.941Z,91.40
2022-08-22T06:34:42.910Z,91.00
2022-08-22T06:37:37.514Z,91.10
2022-08-22T06:40:23.892Z,91.40
2022-08-22T06:43:11.544Z,91.60
2022-08-22T06:45:56.982Z,92.60
2022-08-22T06:48:43.965Z,91.90
2022-08-22T06:51:30.161Z,92.50
2022-08-22T06:54:19.910Z,92.60
2022-08-22T06:57:12.022Z,92.30
2022-08-22T06:59:59.510Z,91.90
2022-08-22T07:02:49.232Z,91.70
2022-08-22T07:05:38.378Z,91.50
2022-08-22T07:08:26.160Z,91.50
2022-08-22T07:11:23.325Z,91.40
2022-08-22T07:14:15.513Z,91.10
2022-08-22T07:17:04.837Z,91.30
2022-08-22T07:20:18.667Z,91.40
2022-08-22T07:23:10.415Z,91.40
2022-08-22T07:26:17.058Z,91.40
2022-08-22T07:29:11.454Z,91.30
2022-08-22T07:32:14.894Z,91.60
2022-08-22T07:35:06.729Z,91.30
2022-08-22T07:38:04.563Z,91.10
2022-08-22T07:41:16.538Z,91.50
2022-08-22T07:44:13.431Z,90.90
2022-08-22T07:47:13.184Z,91.00
2022-08-22T07:50:04.528Z,91.20
2022-08-22T07:52:51.484Z,91.20
2022-08-22T07:55:48.480Z,91.10
2022-08-22T07:58:39.515Z,90.60
2022-08-22T08:01:26.773Z,90.50
2022-08-22T08:04:18.998Z,90.60
2022-08-22T08:07:08.388Z,90.30
2022-08-22T08:10:13.040Z,90.50
2022-08-22T08:13:13.257Z,90.40
2022-08-22T08:15:59.818Z,90.70
2022-08-22T08:18:48.410Z,90.50
2022-08-22T08:21:47.275Z,90.10
2022-08-22T08:24:41.256Z,90.00
2022-08-22T08:27:51.276Z,89.40
2022-08-22T08:30:45.342Z,88.80
2022-08-22T08:33:33.006Z,89.00
2022-08-22T08:36:32.944Z,88.40
2022-08-22T08:39:43.116Z,87.90
2022-08-22T08:42:58.547Z,87.90
2022-08-22T08:46:02.601Z,86.90
2022-08-22T08:48:59.674Z,86.60
2022-08-22T08:51:53.546Z,86.10
2022-08-22T08:55:02.285Z,84.60
2022-08-22T08:58:34.377Z,83.20
2022-08-22T09:01:19.730Z,79.60
2022-08-22T09:04:15.074Z,77.00
2022-08-22T09:07:30.499Z,75.70
2022-08-22T09:10:39.598Z,77.00
2022-08-22T09:13:53.131Z,74.90
2022-08-22T09:17:16.015Z,73.10
2022-08-22T09:20:21.785Z,73.40
2022-08-22T09:23:49.044Z,73.90
2022-08-22T09:26:52.049Z,74.00
2022-08-22T09:29:54.923Z,72.30
2022-08-22T09:33:08.840Z,73.30
2022-08-22T09:36:05.043Z,73.20
2022-08-22T09:38:59.795Z,72.70
2022-08-22T09:41:59.579Z,71.80
2022-08-22T09:45:06.773Z,70.40
2022-08-22T09:48:06.955Z,69.10
2022-08-22T09:51:04.864Z,72.30
2022-08-22T09:54:09.663Z,71.50
2022-08-22T09:57:18.817Z,70.60
2022-08-22T10:00:14.328Z,69.20
2022-08-22T10:03:23.145Z,68.10
2022-08-22T10:06:19.947Z,67.30
2022-08-22T10:09:31.359Z,67.40
2022-08-22T10:12:29.679Z,68.10
2022-08-22T10:15:39.776Z,66.80
2022-08-22T10:18:43.914Z,66.00
2022-08-22T10:22:21.778Z,65.40
2022-08-22T10:25:37.495Z,64.00
2022-08-22T10:28:40.534Z,63.20
2022-08-22T10:31:45.088Z,63.50
2022-08-22T10:34:52.680Z,62.10
2022-08-22T10:37:48.874Z,62.20
2022-08-22T10:40:41.290Z,62.70
2022-08-22T10:43:36.997Z,61.40
2022-08-22T10:46:38.911Z,61.50
2022-08-22T10:49:56.739Z,61.50
2022-08-22T10:52:49.142Z,60.20
2022-08-22T10:55:40.716Z,61.30
2022-08-22T10:58:29.840Z,60.50
2022-08-22T11:01:38.409Z,59.80
2022-08-22T11:04:42.476Z,59.10
2022-08-22T11:07:48.701Z,58.40
2022-08-22T11:10:49.328Z,59.50
2022-08-22T11:13:49.716Z,58.70
2022-08-22T11:16:44.135Z,59.40
2022-08-22T11:19:44.760Z,58.00
2022-08-22T11:22:44.679Z,57.40
2022-08-22T11:25:52.470Z,58.00
2022-08-22T11:29:14.133Z,58.00
2022-08-22T11:32:44.232Z,57.70
2022-08-22T11:35:43.329Z,58.00
2022-08-22T11:38:59.866Z,57.10
2022-08-22T11:42:05.151Z,57.10
2022-08-22T11:44:54.794Z,55.80
2022-08-22T11:47:48.590Z,55.90
2022-08-22T11:50:34.587Z,55.10
2022-08-22T11:53:44.475Z,54.40
2022-08-22T11:56:45.098Z,53.40
2022-08-22T11:59:54.274Z,53.80
2022-08-22T12:02:56.974Z,54.90
2022-08-22T12:05:53.732Z,54.80
2022-08-22T12:08:51.839Z,54.60
2022-08-22T12:11:55.800Z,53.10
2022-08-22T12:14:48.715Z,51.30
2022-08-22T12:18:01.306Z,52.10
2022-08-22T12:21:02.299Z,52.10
2022-08-22T12:24:20.768Z,51.70
2022-08-22T12:27:28.690Z,51.80
2022-08-22T12:30:41.279Z,50.20
2022-08-22T12:33:55.790Z,51.10
2022-08-22T12:36:57.601Z,52.70
2022-08-22T12:40:20.030Z,51.60
2022-08-22T12:43:09.733Z,50.40
2022-08-22T12:46:13.528Z,50.60
2022-08-22T12:49:16.809Z,50.60
2022-08-22T12:52:19.875Z,48.20
2022-08-22T12:55:18.822Z,49.60
2022-08-22T12:58:34.122Z,50.70
2022-08-22T13:01:23.340Z,50.50
2022-08-22T13:04:33.503Z,51.30
2022-08-22T13:07:24.209Z,50.30
2022-08-22T13:10:17.386Z,50.80
2022-08-22T13:13:12.187Z,50.00
2022-08-22T13:16:02.923Z,51.60
2022-08-22T13:19:00.317Z,51.80
2022-08-22T13:22:10.532Z,51.50
2022-08-22T13:25:08.709Z,50.90
2022-08-22T13:27:59.167Z,51.00
2022-08-22T13:30:45.269Z,51.90
2022-08-22T13:33:38.834Z,51.40
2022-08-22T13:36:26.844Z,50.70
2022-08-22T13:39:14.923Z,50.70
2022-08-22T13:42:14.218Z,50.20
2022-08-22T13:45:17.481Z,50.10
2022-08-22T13:48:11.372Z,49.20
2022-08-22T13:51:10.917Z,51.10
2022-08-22T13:54:22.061Z,50.80
2022-08-22T13:57:36.706Z,50.40
2022-08-22T14:00:35.073Z,50.30
2022-08-22T14:03:31.861Z,50.80
2022-08-22T14:06:32.812Z,51.70
2022-08-22T14:09:42.185Z,51.60
2022-08-22T14:12:51.259Z,51.20
2022-08-22T14:15:45.421Z,50.90
2022-08-22T14:18:45.512Z,50.60
2022-08-22T14:21:50.666Z,49.90
2022-08-22T14:24:55.535Z,50.50
2022-08-22T14:27:57.738Z,50.60
2022-08-22T14:31:00.696Z,51.20
2022-08-22T14:34:02.185Z,49.60
2022-08-22T14:36:54.704Z,51.30
2022-08-22T14:39:53.107Z,51.80
2022-08-22T14:42:44.407Z,51.20
2022-08-22T14:45:37.944Z,50.10
2022-08-22T14:48:35.418Z,50.60
2022-08-22T14:51:25.951Z,50.10
2022-08-22T14:54:21.075Z,51.60
2022-08-22T14:57:11.690Z,50.20
2022-08-22T15:00:12.125Z,50.60
2022-08-22T15:03:22.529Z,50.70
2022-08-22T15:06:35.839Z,50.60
2022-08-22T15:09:50.158Z,51.00
2022-08-22T15:12:45.052Z,50.70
2022-08-22T15:15:41.189Z,51.40
2022-08-22T15:18:36.488Z,51.40
2022-08-22T15:21:26.052Z,50.20
2022-08-22T15:24:13.978Z,49.50
2022-08-22T15:27:00.371Z,49.10
2022-08-22T15:29:58.539Z,48.90
2022-08-22T15:32:44.935Z,49.80
2022-08-22T15:35:32.087Z,49.50
2022-08-22T15:38:28.682Z,49.40
2022-08-22T15:41:36.541Z,50.80
2022-08-22T15:44:32.479Z,51.60
2022-08-22T15:47:28.454Z,51.80
2022-08-22T15:50:33.334Z,51.60
2022-08-22T15:53:30.049Z,52.90
2022-08-22T15:56:15.491Z,52.20
2022-08-22T15:59:47.790Z,52.20
2022-08-22T16:03:02.374Z,51.60
2022-08-22T16:05:55.763Z,52.20
2022-08-22T16:08:46.807Z,52.80
2022-08-22T16:11:35.128Z,53.00
2022-08-22T16:14:24.558Z,53.00
2022-08-22T16:17:25.018Z,51.40
2022-08-22T16:20:19.202Z,52.40
2022-08-22T16:23:08.066Z,53.70
2022-08-22T16:25:53.072Z,54.10
2022-08-22T16:29:14.771Z,53.00
2022-08-22T16:32:07.173Z,53.30
2022-08-22T16:34:52.313Z,52.20
2022-08-22T16:37:47.737Z,52.60
2022-08-22T16:40:47.051Z,52.30
2022-08-22T16:43:33.007Z,53.10
2022-08-22T16:46:38.539Z,53.00
2022-08-22T16:49:31.785Z,53.90
2022-08-22T16:52:26.263Z,54.80
2022-08-22T16:55:30.019Z,54.20
2022-08-22T16:58:55.817Z,54.50
2022-08-22T17:01:57.688Z,54.60
2022-08-22T17:05:06.846Z,55.10
2022-08-22T17:08:07.955Z,54.60
2022-08-22T17:10:53.145Z,55.00
2022-08-22T17:14:19.850Z,55.90
2022-08-22T17:17:28.444Z,55.70
2022-08-22T17:20:44.534Z,56.00
2022-08-22T17:23:39.013Z,56.60
2022-08-22T17:26:38.197Z,57.00
2022-08-22T17:29:44.179Z,57.30
2022-08-22T17:33:07.225Z,57.90
2022-08-22T17:36:26.429Z,57.70
2022-08-22T17:39:39.201Z,57.60
2022-08-22T17:42:35.466Z,58.30
2022-08-22T17:45:39.468Z,58.80
2022-08-22T17:48:45.900Z,59.40
2022-08-22T17:51:46.156Z,58.90
2022-08-22T17:54:40.487Z,59.40
2022-08-22T17:57:32.959Z,59.40
2022-08-22T18:00:33.238Z,60.10
2022-08-22T18:03:36.388Z,60.30
2022-08-22T18:06:32.719Z,60.90
2022-08-22T18:09:31.728Z,61.00
2022-08-22T18:12:52.490Z,60.90
2022-08-22T18:15:57.442Z,61.40
2022-08-22T18:19:06.101Z,61.60
2022-08-22T18:21:59.595Z,62.30
2022-08-22T18:25:15.745Z,62.70
2022-08-22T18:28:06.842Z,62.90
2022-08-22T18:31:02.483Z,62.80
2022-08-22T18:34:01.331Z,62.50
2022-08-22T18:37:17.244Z,62.80
2022-08-22T18:40:10.421Z,63.30
2022-08-22T18:43:14.014Z,63.60
2022-08-22T18:46:03.898Z,63.80
2022-08-22T18:49:12.095Z,64.20
2022-08-22T18:52:19.008Z,64.70
2022-08-22T18:55:07.246Z,65.30
2022-08-22T18:58:27.948Z,64.90
2022-08-22T19:01:45.086Z,65.20
2022-08-22T19:04:53.262Z,65.10
2022-08-22T19:08:00.905Z,65.50
2022-08-22T19:11:15.213Z,65.60
2022-08-22T19:14:16.239Z,66.80
2022-08-22T19:17:27.883Z,67.40
2022-08-22T19:20:48.772Z,67.80
2022-08-22T19:23:43.522Z,67.90
2022-08-22T19:26:48.045Z,68.60
2022-08-22T19:29:33.341Z,68.00
2022-08-22T19:32:46.812Z,67.90
2022-08-22T19:35:38.532Z,67.40
2022-08-22T19:38:50.534Z,67.20
2022-08-22T19:41:46.055Z,67.10
2022-08-22T19:44:38.017Z,67.20
2022-08-22T19:47:29.252Z,67.70
2022-08-22T19:50:17.943Z,68.90
2022-08-22T19:53:21.858Z,69.30
2022-08-22T19:56:17.926Z,70.00
2022-08-22T19:59:29.746Z,70.40
2022-08-22T20:02:18.387Z,71.10
2022-08-22T20:05:27.519Z,71.20
2022-08-22T20:08:43.314Z,70.90
2022-08-22T20:12:25.819Z,71.10
2022-08-22T20:15:16.311Z,71.10
2022-08-22T20:21:08.387Z,71.20
2022-08-22T20:23:54.589Z,71.30
2022-08-22T20:26:57.604Z,71.10
2022-08-22T20:30:02.134Z,70.70
2022-08-22T20:33:06.266Z,70.70
2022-08-22T20:35:55.670Z,71.00
2022-08-22T20:38:55.544Z,70.90
2022-08-22T20:41:45.746Z,71.60
2022-08-22T20:44:40.090Z,71.40
2022-08-22T20:47:36.186Z,71.70
2022-08-22T20:50:28.770Z,71.70
2022-08-22T20:53:20.284Z,72.00
2022-08-22T20:56:07.959Z,71.60
2022-08-22T20:58:54.685Z,71.90
2022-08-22T21:01:42.659Z,73.00
2022-08-22T21:04:42.477Z,73.10
2022-08-22T21:07:38.243Z,72.90
2022-08-22T21:10:48.444Z,73.30
2022-08-22T21:13:36.476Z,72.90
2022-08-22T21:16:31.370Z,72.80
2022-08-22T21:19:26.351Z,73.20
2022-08-22T21:22:18.336Z,73.20
2022-08-22T21:25:03.617Z,73.20
2022-08-22T21:27:49.080Z,73.20
2022-08-22T21:30:36.021Z,73.40
2022-08-22T21:33:24.571Z,73.20
2022-08-22T21:36:12.246Z,73.40
2022-08-22T21:39:11.946Z,73.10
2022-08-22T21:42:00.246Z,73.70
2022-08-22T21:44:55.816Z,73.30
2022-08-22T21:47:42.936Z,74.10
2022-08-22T21:50:37.717Z,73.80
2022-08-22T21:53:28.438Z,74.40
2022-08-22T21:56:26.500Z,74.40
2022-08-22T21:59:50.741Z,74.60
2022-08-22T22:02:42.360Z,74.90
2022-08-22T22:05:29.248Z,75.10
2022-08-22T22:08:15.292Z,75.30
2022-08-22T22:11:06.192Z,75.30
2022-08-22T22:13:54.309Z,75.40
2022-08-22T22:16:39.573Z,75.30
2022-08-22T22:19:24.914Z,75.20
2022-08-22T22:22:10.274Z,75.20
2022-08-22T22:24:55.594Z,75.30
2022-08-22T22:27:41.219Z,75.20
2022-08-22T22:30:26.471Z,75.40
2022-08-22T22:33:12.067Z,75.70
2022-08-22T22:36:10.047Z,76.00
2022-08-22T22:38:55.634Z,76.10
2022-08-22T22:41:41.015Z,76.50
2022-08-22T22:44:26.393Z,76.70
2022-08-22T22:47:11.731Z,76.60
2022-08-22T22:49:57.715Z,76.30
2022-08-22T22:52:43.064Z,76.50
2022-08-22T22:55:28.353Z,76.80
2022-08-22T22:58:15.823Z,76.20
2022-08-22T23:01:15.096Z,76.40
2022-08-22T23:04:03.278Z,76.40
2022-08-22T23:06:51.048Z,76.70
2022-08-22T23:09:38.329Z,76.70
2022-08-22T23:12:29.921Z,77.40
2022-08-22T23:15:15.318Z,77.40
2022-08-22T23:18:00.920Z,77.70
2022-08-22T23:20:46.415Z,77.80
2022-08-22T23:23:31.690Z,77.90
2022-08-22T23:26:17.715Z,78.20
2022-08-22T23:29:03.786Z,78.00
2022-08-22T23:32:01.051Z,77.70
2022-08-22T23:34:48.687Z,77.20
2022-08-22T23:37:34.234Z,78.20
2022-08-22T23:40:19.858Z,78.20
2022-08-22T23:43:05.073Z,78.00
2022-08-22T23:45:50.638Z,78.40
2022-08-22T23:48:36.059Z,78.50
2022-08-22T23:51:24.109Z,78.40
2022-08-22T23:54:09.485Z,78.30
2022-08-22T23:56:57.572Z,78.50
2022-08-22T23:59:47.862Z,78.30
